sensor_id;sensor_type;location;lat;lon;timestamp;temperature;humidity
51383;DHT22;37475;43.358;1.248;2023-07-20T00:01:27;19.30;86.40
51383;DHT22;37475;43.358;1.248;2023-07-20T00:03:52;19.10;87.00
51383;DHT22;37475;43.358;1.248;2023-07-20T00:06:27;19.10;87.40
51383;DHT22;37475;43.358;1.248;2023-07-20T00:08:54;19.10;87.50
51383;DHT22;37475;43.358;1.248;2023-07-20T00:11:21;19.00;87.60
51383;DHT22;37475;43.358;1.248;2023-07-20T00:13:50;19.10;87.60
51383;DHT22;37475;43.358;1.248;2023-07-20T00:16:16;19.10;87.70
51383;DHT22;37475;43.358;1.248;2023-07-20T00:18:42;19.00;87.60
51383;DHT22;37475;43.358;1.248;2023-07-20T00:21:08;19.00;87.60
51383;DHT22;37475;43.358;1.248;2023-07-20T00:23:33;19.00;87.30
51383;DHT22;37475;43.358;1.248;2023-07-20T00:25:59;19.10;86.90
51383;DHT22;37475;43.358;1.248;2023-07-20T00:28:25;19.10;86.70
51383;DHT22;37475;43.358;1.248;2023-07-20T00:30:51;19.10;87.10
51383;DHT22;37475;43.358;1.248;2023-07-20T00:33:18;19.10;87.00
51383;DHT22;37475;43.358;1.248;2023-07-20T00:35:44;19.00;87.30
51383;DHT22;37475;43.358;1.248;2023-07-20T00:38:10;19.00;87.30
51383;DHT22;37475;43.358;1.248;2023-07-20T00:40:39;19.10;86.90
51383;DHT22;37475;43.358;1.248;2023-07-20T00:43:06;19.10;86.50
51383;DHT22;37475;43.358;1.248;2023-07-20T00:45:33;19.10;86.80
51383;DHT22;37475;43.358;1.248;2023-07-20T00:48:01;19.00;87.20
51383;DHT22;37475;43.358;1.248;2023-07-20T00:50:28;18.90;87.20
51383;DHT22;37475;43.358;1.248;2023-07-20T00:52:55;18.80;87.60
51383;DHT22;37475;43.358;1.248;2023-07-20T00:55:23;18.70;87.90
51383;DHT22;37475;43.358;1.248;2023-07-20T00:57:50;18.80;87.70
51383;DHT22;37475;43.358;1.248;2023-07-20T01:00:16;18.80;87.60
51383;DHT22;37475;43.358;1.248;2023-07-20T01:02:43;18.80;87.70
51383;DHT22;37475;43.358;1.248;2023-07-20T01:05:09;18.60;88.10
51383;DHT22;37475;43.358;1.248;2023-07-20T01:07:38;18.60;88.50
51383;DHT22;37475;43.358;1.248;2023-07-20T01:13:07;18.60;88.30
51383;DHT22;37475;43.358;1.248;2023-07-20T01:15:36;18.60;88.20
51383;DHT22;37475;43.358;1.248;2023-07-20T01:18:02;18.70;88.10
51383;DHT22;37475;43.358;1.248;2023-07-20T01:20:31;18.70;88.00
51383;DHT22;37475;43.358;1.248;2023-07-20T01:32:23;18.80;87.30
51383;DHT22;37475;43.358;1.248;2023-07-20T01:34:52;18.60;87.90
51383;DHT22;37475;43.358;1.248;2023-07-20T01:37:20;18.60;88.40
51383;DHT22;37475;43.358;1.248;2023-07-20T01:39:52;18.60;88.10
51383;DHT22;37475;43.358;1.248;2023-07-20T01:42:23;18.70;87.70
51383;DHT22;37475;43.358;1.248;2023-07-20T01:44:53;18.80;87.40
51383;DHT22;37475;43.358;1.248;2023-07-20T01:47:19;18.70;87.30
51383;DHT22;37475;43.358;1.248;2023-07-20T01:49:45;18.70;87.60
51383;DHT22;37475;43.358;1.248;2023-07-20T01:52:11;18.60;88.20
51383;DHT22;37475;43.358;1.248;2023-07-20T01:54:37;18.60;88.10
51383;DHT22;37475;43.358;1.248;2023-07-20T01:57:03;18.60;87.90
51383;DHT22;37475;43.358;1.248;2023-07-20T01:59:29;18.50;88.00
51383;DHT22;37475;43.358;1.248;2023-07-20T02:01:55;18.60;87.60
51383;DHT22;37475;43.358;1.248;2023-07-20T02:04:21;18.60;87.40
51383;DHT22;37475;43.358;1.248;2023-07-20T02:06:46;18.60;87.10
51383;DHT22;37475;43.358;1.248;2023-07-20T02:09:12;18.60;87.10
51383;DHT22;37475;43.358;1.248;2023-07-20T02:11:38;18.60;87.20
51383;DHT22;37475;43.358;1.248;2023-07-20T02:14:04;18.60;87.60
51383;DHT22;37475;43.358;1.248;2023-07-20T02:16:29;18.40;88.10
51383;DHT22;37475;43.358;1.248;2023-07-20T02:18:55;18.20;88.80
51383;DHT22;37475;43.358;1.248;2023-07-20T02:21:22;18.10;89.50
51383;DHT22;37475;43.358;1.248;2023-07-20T02:23:48;18.10;89.70
51383;DHT22;37475;43.358;1.248;2023-07-20T02:26:14;18.00;90.10
51383;DHT22;37475;43.358;1.248;2023-07-20T02:28:40;17.90;90.30
51383;DHT22;37475;43.358;1.248;2023-07-20T02:31:06;18.00;90.50
51383;DHT22;37475;43.358;1.248;2023-07-20T02:33:32;17.90;90.50
51383;DHT22;37475;43.358;1.248;2023-07-20T02:35:58;18.00;90.40
51383;DHT22;37475;43.358;1.248;2023-07-20T02:38:24;18.00;90.10
51383;DHT22;37475;43.358;1.248;2023-07-20T02:40:50;18.10;89.70
51383;DHT22;37475;43.358;1.248;2023-07-20T02:43:17;18.10;89.50
51383;DHT22;37475;43.358;1.248;2023-07-20T02:45:43;18.10;89.40
51383;DHT22;37475;43.358;1.248;2023-07-20T02:48:09;18.10;89.70
51383;DHT22;37475;43.358;1.248;2023-07-20T02:50:35;18.10;89.40
51383;DHT22;37475;43.358;1.248;2023-07-20T02:53:01;18.10;89.20
51383;DHT22;37475;43.358;1.248;2023-07-20T02:55:27;18.00;89.60
51383;DHT22;37475;43.358;1.248;2023-07-20T02:57:52;17.80;90.40
51383;DHT22;37475;43.358;1.248;2023-07-20T03:00:18;17.80;90.80
51383;DHT22;37475;43.358;1.248;2023-07-20T03:02:48;17.80;90.90
51383;DHT22;37475;43.358;1.248;2023-07-20T03:05:14;17.80;90.80
51383;DHT22;37475;43.358;1.248;2023-07-20T03:07:42;17.80;90.70
51383;DHT22;37475;43.358;1.248;2023-07-20T03:10:09;17.70;90.80
51383;DHT22;37475;43.358;1.248;2023-07-20T03:12:35;17.80;90.80
51383;DHT22;37475;43.358;1.248;2023-07-20T03:15:02;17.90;90.50
51383;DHT22;37475;43.358;1.248;2023-07-20T03:17:28;17.80;90.30
51383;DHT22;37475;43.358;1.248;2023-07-20T03:19:54;17.70;90.50
51383;DHT22;37475;43.358;1.248;2023-07-20T03:22:20;17.60;90.90
51383;DHT22;37475;43.358;1.248;2023-07-20T03:24:47;17.60;91.10
51383;DHT22;37475;43.358;1.248;2023-07-20T03:27:14;17.60;91.30
51383;DHT22;37475;43.358;1.248;2023-07-20T03:29:39;17.60;91.00
51383;DHT22;37475;43.358;1.248;2023-07-20T03:32:05;17.70;90.70
51383;DHT22;37475;43.358;1.248;2023-07-20T03:34:31;17.70;90.50
51383;DHT22;37475;43.358;1.248;2023-07-20T03:36:57;17.70;90.10
51383;DHT22;37475;43.358;1.248;2023-07-20T03:39:24;17.70;90.10
51383;DHT22;37475;43.358;1.248;2023-07-20T03:41:50;17.80;89.90
51383;DHT22;37475;43.358;1.248;2023-07-20T03:44:16;17.80;89.70
51383;DHT22;37475;43.358;1.248;2023-07-20T03:46:42;17.80;89.40
51383;DHT22;37475;43.358;1.248;2023-07-20T03:49:07;17.80;89.20
51383;DHT22;37475;43.358;1.248;2023-07-20T03:51:34;17.80;89.00
51383;DHT22;37475;43.358;1.248;2023-07-20T03:54:00;17.80;89.30
51383;DHT22;37475;43.358;1.248;2023-07-20T03:56:26;17.80;89.10
51383;DHT22;37475;43.358;1.248;2023-07-20T03:58:52;17.60;89.40
51383;DHT22;37475;43.358;1.248;2023-07-20T04:01:18;17.50;90.20
51383;DHT22;37475;43.358;1.248;2023-07-20T04:03:44;17.50;90.30
51383;DHT22;37475;43.358;1.248;2023-07-20T04:06:10;17.40;90.40
51383;DHT22;37475;43.358;1.248;2023-07-20T04:08:36;17.50;90.60
51383;DHT22;37475;43.358;1.248;2023-07-20T04:11:02;17.50;90.50
51383;DHT22;37475;43.358;1.248;2023-07-20T04:13:28;17.50;90.30
51383;DHT22;37475;43.358;1.248;2023-07-20T04:15:59;17.50;90.10
51383;DHT22;37475;43.358;1.248;2023-07-20T04:18:25;17.50;90.20
51383;DHT22;37475;43.358;1.248;2023-07-20T04:20:51;17.50;90.20
51383;DHT22;37475;43.358;1.248;2023-07-20T04:23:17;17.50;90.10
51383;DHT22;37475;43.358;1.248;2023-07-20T04:25:44;17.50;89.80
51383;DHT22;37475;43.358;1.248;2023-07-20T04:28:09;17.50;89.70
51383;DHT22;37475;43.358;1.248;2023-07-20T04:30:36;17.60;89.80
51383;DHT22;37475;43.358;1.248;2023-07-20T04:33:03;17.50;89.60
51383;DHT22;37475;43.358;1.248;2023-07-20T04:38:15;17.60;89.40
51383;DHT22;37475;43.358;1.248;2023-07-20T04:40:47;17.50;89.60
51383;DHT22;37475;43.358;1.248;2023-07-20T04:43:14;17.50;89.60
51383;DHT22;37475;43.358;1.248;2023-07-20T04:45:41;17.50;89.80
51383;DHT22;37475;43.358;1.248;2023-07-20T04:48:10;17.40;90.00
51383;DHT22;37475;43.358;1.248;2023-07-20T04:50:37;17.40;90.00
51383;DHT22;37475;43.358;1.248;2023-07-20T04:53:04;17.40;89.90
51383;DHT22;37475;43.358;1.248;2023-07-20T04:55:30;17.40;90.00
51383;DHT22;37475;43.358;1.248;2023-07-20T04:57:56;17.50;90.00
51383;DHT22;37475;43.358;1.248;2023-07-20T05:00:21;17.50;90.00
51383;DHT22;37475;43.358;1.248;2023-07-20T05:02:47;17.50;89.90
51383;DHT22;37475;43.358;1.248;2023-07-20T05:05:14;17.40;89.90
51383;DHT22;37475;43.358;1.248;2023-07-20T05:07:40;17.30;90.40
51383;DHT22;37475;43.358;1.248;2023-07-20T05:10:07;17.20;90.70
51383;DHT22;37475;43.358;1.248;2023-07-20T05:12:33;17.20;91.00
51383;DHT22;37475;43.358;1.248;2023-07-20T05:14:59;17.10;91.20
51383;DHT22;37475;43.358;1.248;2023-07-20T05:17:24;17.10;91.40
51383;DHT22;37475;43.358;1.248;2023-07-20T05:19:50;17.10;91.70
51383;DHT22;37475;43.358;1.248;2023-07-20T05:22:16;17.10;91.70
51383;DHT22;37475;43.358;1.248;2023-07-20T05:24:42;17.10;91.80
51383;DHT22;37475;43.358;1.248;2023-07-20T05:27:08;17.20;91.90
51383;DHT22;37475;43.358;1.248;2023-07-20T05:29:34;17.20;91.80
51383;DHT22;37475;43.358;1.248;2023-07-20T05:32:00;17.30;91.80
51383;DHT22;37475;43.358;1.248;2023-07-20T05:34:25;17.30;91.90
51383;DHT22;37475;43.358;1.248;2023-07-20T05:36:51;17.30;92.10
51383;DHT22;37475;43.358;1.248;2023-07-20T05:39:17;17.30;92.00
51383;DHT22;37475;43.358;1.248;2023-07-20T05:41:43;17.30;92.10
51383;DHT22;37475;43.358;1.248;2023-07-20T05:44:09;17.30;92.00
51383;DHT22;37475;43.358;1.248;2023-07-20T05:46:35;17.40;91.80
51383;DHT22;37475;43.358;1.248;2023-07-20T05:49:01;17.50;91.80
51383;DHT22;37475;43.358;1.248;2023-07-20T05:51:27;17.50;91.70
51383;DHT22;37475;43.358;1.248;2023-07-20T05:53:53;17.50;92.00
51383;DHT22;37475;43.358;1.248;2023-07-20T05:56:19;17.50;91.90
51383;DHT22;37475;43.358;1.248;2023-07-20T05:58:44;17.60;91.70
51383;DHT22;37475;43.358;1.248;2023-07-20T06:01:10;17.60;91.70
51383;DHT22;37475;43.358;1.248;2023-07-20T06:03:36;17.70;91.60
51383;DHT22;37475;43.358;1.248;2023-07-20T06:06:03;17.80;91.40
51383;DHT22;37475;43.358;1.248;2023-07-20T06:08:34;17.80;90.90
51383;DHT22;37475;43.358;1.248;2023-07-20T06:11:00;18.00;90.70
51383;DHT22;37475;43.358;1.248;2023-07-20T06:13:26;18.10;90.60
51383;DHT22;37475;43.358;1.248;2023-07-20T06:15:52;18.10;90.50
51383;DHT22;37475;43.358;1.248;2023-07-20T06:18:17;18.10;90.30
51383;DHT22;37475;43.358;1.248;2023-07-20T06:20:49;18.10;90.60
51383;DHT22;37475;43.358;1.248;2023-07-20T06:23:16;18.10;90.30
51383;DHT22;37475;43.358;1.248;2023-07-20T06:25:42;18.10;90.10
51383;DHT22;37475;43.358;1.248;2023-07-20T06:28:08;18.30;90.10
51383;DHT22;37475;43.358;1.248;2023-07-20T06:30:34;18.30;89.80
51383;DHT22;37475;43.358;1.248;2023-07-20T06:33:00;18.50;90.10
51383;DHT22;37475;43.358;1.248;2023-07-20T06:35:26;18.50;89.90
51383;DHT22;37475;43.358;1.248;2023-07-20T06:37:52;18.40;89.50
51383;DHT22;37475;43.358;1.248;2023-07-20T06:40:18;18.50;89.60
51383;DHT22;37475;43.358;1.248;2023-07-20T06:42:44;18.50;89.30
51383;DHT22;37475;43.358;1.248;2023-07-20T06:45:10;18.60;89.40
51383;DHT22;37475;43.358;1.248;2023-07-20T06:47:39;18.60;89.20
51383;DHT22;37475;43.358;1.248;2023-07-20T06:50:09;18.70;88.90
51383;DHT22;37475;43.358;1.248;2023-07-20T06:52:36;18.80;88.70
51383;DHT22;37475;43.358;1.248;2023-07-20T06:55:02;19.00;88.60
51383;DHT22;37475;43.358;1.248;2023-07-20T06:57:28;19.00;87.80
51383;DHT22;37475;43.358;1.248;2023-07-20T06:59:54;19.10;87.60
51383;DHT22;37475;43.358;1.248;2023-07-20T07:02:20;19.20;87.20
51383;DHT22;37475;43.358;1.248;2023-07-20T07:04:45;19.30;87.20
51383;DHT22;37475;43.358;1.248;2023-07-20T07:07:14;19.30;87.10
51383;DHT22;37475;43.358;1.248;2023-07-20T07:09:41;19.40;86.50
51383;DHT22;37475;43.358;1.248;2023-07-20T07:12:07;19.60;86.40
51383;DHT22;37475;43.358;1.248;2023-07-20T07:14:34;19.60;85.30
51383;DHT22;37475;43.358;1.248;2023-07-20T07:17:00;19.60;85.30
51383;DHT22;37475;43.358;1.248;2023-07-20T07:19:26;19.80;84.70
51383;DHT22;37475;43.358;1.248;2023-07-20T07:21:52;20.00;84.50
51383;DHT22;37475;43.358;1.248;2023-07-20T07:24:18;20.00;84.60
51383;DHT22;37475;43.358;1.248;2023-07-20T07:26:43;20.10;84.30
51383;DHT22;37475;43.358;1.248;2023-07-20T07:29:09;20.10;83.60
51383;DHT22;37475;43.358;1.248;2023-07-20T07:31:35;20.20;83.30
51383;DHT22;37475;43.358;1.248;2023-07-20T07:34:02;20.40;82.80
51383;DHT22;37475;43.358;1.248;2023-07-20T07:36:28;20.30;82.40
51383;DHT22;37475;43.358;1.248;2023-07-20T07:38:54;20.30;82.00
51383;DHT22;37475;43.358;1.248;2023-07-20T07:41:20;20.50;82.10
51383;DHT22;37475;43.358;1.248;2023-07-20T07:43:46;20.60;81.20
51383;DHT22;37475;43.358;1.248;2023-07-20T07:46:12;20.60;80.70
51383;DHT22;37475;43.358;1.248;2023-07-20T07:48:38;20.70;80.90
51383;DHT22;37475;43.358;1.248;2023-07-20T07:51:04;20.80;81.20
51383;DHT22;37475;43.358;1.248;2023-07-20T07:53:31;20.80;80.50
51383;DHT22;37475;43.358;1.248;2023-07-20T07:55:58;20.90;80.40
51383;DHT22;37475;43.358;1.248;2023-07-20T07:58:24;20.90;79.70
51383;DHT22;37475;43.358;1.248;2023-07-20T08:00:50;21.10;80.00
51383;DHT22;37475;43.358;1.248;2023-07-20T08:03:15;21.10;79.70
51383;DHT22;37475;43.358;1.248;2023-07-20T08:05:41;21.20;78.60
51383;DHT22;37475;43.358;1.248;2023-07-20T08:08:07;21.30;78.40
51383;DHT22;37475;43.358;1.248;2023-07-20T08:10:34;21.50;79.00
51383;DHT22;37475;43.358;1.248;2023-07-20T08:13:00;21.50;78.20
51383;DHT22;37475;43.358;1.248;2023-07-20T08:15:26;21.60;77.50
51383;DHT22;37475;43.358;1.248;2023-07-20T08:17:52;21.70;77.40
51383;DHT22;37475;43.358;1.248;2023-07-20T08:20:18;21.90;77.00
51383;DHT22;37475;43.358;1.248;2023-07-20T08:22:44;22.10;76.00
51383;DHT22;37475;43.358;1.248;2023-07-20T08:25:10;22.10;75.60
51383;DHT22;37475;43.358;1.248;2023-07-20T08:27:36;22.10;75.40
51383;DHT22;37475;43.358;1.248;2023-07-20T08:30:03;22.10;75.30
51383;DHT22;37475;43.358;1.248;2023-07-20T08:32:29;22.20;76.10
51383;DHT22;37475;43.358;1.248;2023-07-20T08:34:55;22.30;74.40
51383;DHT22;37475;43.358;1.248;2023-07-20T08:37:22;22.50;74.60
51383;DHT22;37475;43.358;1.248;2023-07-20T08:39:48;22.60;74.00
51383;DHT22;37475;43.358;1.248;2023-07-20T08:42:14;22.60;72.90
51383;DHT22;37475;43.358;1.248;2023-07-20T08:44:42;22.70;72.90
51383;DHT22;37475;43.358;1.248;2023-07-20T08:47:09;22.90;73.20
51383;DHT22;37475;43.358;1.248;2023-07-20T08:49:36;23.00;72.20
51383;DHT22;37475;43.358;1.248;2023-07-20T08:52:04;23.10;71.90
51383;DHT22;37475;43.358;1.248;2023-07-20T08:54:31;23.20;70.50
51383;DHT22;37475;43.358;1.248;2023-07-20T08:57:02;23.40;71.60
51383;DHT22;37475;43.358;1.248;2023-07-20T08:59:29;23.50;70.30
51383;DHT22;37475;43.358;1.248;2023-07-20T09:01:59;23.60;70.40
51383;DHT22;37475;43.358;1.248;2023-07-20T09:04:25;23.80;68.20
51383;DHT22;37475;43.358;1.248;2023-07-20T09:06:51;23.90;68.30
51383;DHT22;37475;43.358;1.248;2023-07-20T09:09:17;24.00;68.50
51383;DHT22;37475;43.358;1.248;2023-07-20T09:11:47;24.10;69.80
51383;DHT22;37475;43.358;1.248;2023-07-20T09:14:14;24.10;69.90
51383;DHT22;37475;43.358;1.248;2023-07-20T09:16:51;24.40;68.20
51383;DHT22;37475;43.358;1.248;2023-07-20T09:19:19;24.60;66.90
51383;DHT22;37475;43.358;1.248;2023-07-20T09:21:48;24.60;66.60
51383;DHT22;37475;43.358;1.248;2023-07-20T09:24:18;24.90;67.30
51383;DHT22;37475;43.358;1.248;2023-07-20T09:26:45;25.10;64.60
51383;DHT22;37475;43.358;1.248;2023-07-20T09:29:19;25.30;64.80
51383;DHT22;37475;43.358;1.248;2023-07-20T09:32:04;25.50;64.50
51383;DHT22;37475;43.358;1.248;2023-07-20T09:34:31;25.00;62.30
51383;DHT22;37475;43.358;1.248;2023-07-20T09:36:58;25.20;63.90
51383;DHT22;37475;43.358;1.248;2023-07-20T09:39:24;25.50;61.90
51383;DHT22;37475;43.358;1.248;2023-07-20T09:41:51;25.50;63.10
51383;DHT22;37475;43.358;1.248;2023-07-20T09:44:17;25.80;61.60
51383;DHT22;37475;43.358;1.248;2023-07-20T09:46:47;25.50;61.10
51383;DHT22;37475;43.358;1.248;2023-07-20T09:49:14;25.30;57.80
51383;DHT22;37475;43.358;1.248;2023-07-20T09:51:44;25.00;60.00
51383;DHT22;37475;43.358;1.248;2023-07-20T09:54:10;25.00;62.00
51383;DHT22;37475;43.358;1.248;2023-07-20T09:56:38;24.90;61.80
51383;DHT22;37475;43.358;1.248;2023-07-20T09:59:04;24.60;62.60
51383;DHT22;37475;43.358;1.248;2023-07-20T10:01:31;25.00;60.40
51383;DHT22;37475;43.358;1.248;2023-07-20T10:03:58;25.30;58.60
51383;DHT22;37475;43.358;1.248;2023-07-20T10:06:28;25.30;58.20
51383;DHT22;37475;43.358;1.248;2023-07-20T10:09:00;25.60;59.00
51383;DHT22;37475;43.358;1.248;2023-07-20T10:11:29;25.80;56.30
51383;DHT22;37475;43.358;1.248;2023-07-20T10:13:57;26.00;55.70
51383;DHT22;37475;43.358;1.248;2023-07-20T10:16:39;26.10;56.60
51383;DHT22;37475;43.358;1.248;2023-07-20T10:21:48;26.90;56.60
51383;DHT22;37475;43.358;1.248;2023-07-20T10:24:19;26.80;57.50
51383;DHT22;37475;43.358;1.248;2023-07-20T10:26:45;26.10;56.90
51383;DHT22;37475;43.358;1.248;2023-07-20T10:29:12;26.10;58.90
51383;DHT22;37475;43.358;1.248;2023-07-20T10:31:38;26.50;58.10
51383;DHT22;37475;43.358;1.248;2023-07-20T10:34:04;26.60;56.50
51383;DHT22;37475;43.358;1.248;2023-07-20T10:36:30;26.80;57.10
51383;DHT22;37475;43.358;1.248;2023-07-20T10:38:56;27.20;56.70
51383;DHT22;37475;43.358;1.248;2023-07-20T10:41:29;27.60;56.60
51383;DHT22;37475;43.358;1.248;2023-07-20T10:44:04;27.50;54.70
51383;DHT22;37475;43.358;1.248;2023-07-20T10:49:09;27.20;55.00
51383;DHT22;37475;43.358;1.248;2023-07-20T10:51:39;26.80;55.90
51383;DHT22;37475;43.358;1.248;2023-07-20T10:56:41;26.50;57.20
51383;DHT22;37475;43.358;1.248;2023-07-20T10:59:36;26.20;58.40
51383;DHT22;37475;43.358;1.248;2023-07-20T11:02:06;26.30;57.40
51383;DHT22;37475;43.358;1.248;2023-07-20T11:04:40;26.50;56.50
51383;DHT22;37475;43.358;1.248;2023-07-20T11:07:06;26.10;57.00
51383;DHT22;37475;43.358;1.248;2023-07-20T11:09:37;26.30;57.90
51383;DHT22;37475;43.358;1.248;2023-07-20T11:12:29;26.50;59.50
51383;DHT22;37475;43.358;1.248;2023-07-20T11:14:56;26.70;55.00
51383;DHT22;37475;43.358;1.248;2023-07-20T11:17:30;26.50;56.10
51383;DHT22;37475;43.358;1.248;2023-07-20T11:19:58;26.90;56.20
51383;DHT22;37475;43.358;1.248;2023-07-20T11:22:26;27.50;54.90
51383;DHT22;37475;43.358;1.248;2023-07-20T11:24:55;27.90;52.90
51383;DHT22;37475;43.358;1.248;2023-07-20T11:27:21;28.20;52.00
51383;DHT22;37475;43.358;1.248;2023-07-20T11:29:50;28.70;51.20
51383;DHT22;37475;43.358;1.248;2023-07-20T11:32:25;29.00;50.00
51383;DHT22;37475;43.358;1.248;2023-07-20T11:34:51;28.50;50.90
51383;DHT22;37475;43.358;1.248;2023-07-20T11:37:17;27.80;53.00
51383;DHT22;37475;43.358;1.248;2023-07-20T11:39:44;27.50;53.20
51383;DHT22;37475;43.358;1.248;2023-07-20T11:42:10;27.90;53.00
51383;DHT22;37475;43.358;1.248;2023-07-20T11:44:37;28.00;53.00
51383;DHT22;37475;43.358;1.248;2023-07-20T11:49:34;28.00;51.50
51383;DHT22;37475;43.358;1.248;2023-07-20T11:52:13;28.20;52.50
51383;DHT22;37475;43.358;1.248;2023-07-20T11:54:41;28.30;50.80
51383;DHT22;37475;43.358;1.248;2023-07-20T11:57:21;28.30;52.70
51383;DHT22;37475;43.358;1.248;2023-07-20T12:00:02;28.50;51.30
51383;DHT22;37475;43.358;1.248;2023-07-20T12:02:37;29.00;48.80
51383;DHT22;37475;43.358;1.248;2023-07-20T12:05:05;29.00;49.50
51383;DHT22;37475;43.358;1.248;2023-07-20T12:07:35;29.30;48.60
51383;DHT22;37475;43.358;1.248;2023-07-20T12:10:14;29.30;49.20
51383;DHT22;37475;43.358;1.248;2023-07-20T12:12:42;29.80;47.70
51383;DHT22;37475;43.358;1.248;2023-07-20T12:15:24;29.70;47.30
51383;DHT22;37475;43.358;1.248;2023-07-20T12:18:02;30.20;47.70
51383;DHT22;37475;43.358;1.248;2023-07-20T12:20:33;30.50;45.90
51383;DHT22;37475;43.358;1.248;2023-07-20T12:23:11;30.50;46.80
51383;DHT22;37475;43.358;1.248;2023-07-20T12:25:42;30.50;45.80
51383;DHT22;37475;43.358;1.248;2023-07-20T12:28:14;30.30;46.80
51383;DHT22;37475;43.358;1.248;2023-07-20T12:30:43;30.40;47.50
51383;DHT22;37475;43.358;1.248;2023-07-20T12:33:10;30.10;47.30
51383;DHT22;37475;43.358;1.248;2023-07-20T12:35:37;30.50;46.60
51383;DHT22;37475;43.358;1.248;2023-07-20T12:38:03;30.50;46.20
51383;DHT22;37475;43.358;1.248;2023-07-20T12:40:29;30.30;46.10
51383;DHT22;37475;43.358;1.248;2023-07-20T12:42:55;29.40;49.00
51383;DHT22;37475;43.358;1.248;2023-07-20T12:45:21;29.70;47.90
51383;DHT22;37475;43.358;1.248;2023-07-20T12:47:47;29.10;48.90
51383;DHT22;37475;43.358;1.248;2023-07-20T12:50:13;29.20;50.50
51383;DHT22;37475;43.358;1.248;2023-07-20T12:52:40;29.20;49.70
51383;DHT22;37475;43.358;1.248;2023-07-20T12:55:07;29.70;48.40
51383;DHT22;37475;43.358;1.248;2023-07-20T12:57:35;30.10;48.20
51383;DHT22;37475;43.358;1.248;2023-07-20T13:00:03;30.30;46.80
51383;DHT22;37475;43.358;1.248;2023-07-20T13:02:32;29.50;47.80
51383;DHT22;37475;43.358;1.248;2023-07-20T13:04:58;29.70;47.90
51383;DHT22;37475;43.358;1.248;2023-07-20T13:07:32;30.30;47.70
51383;DHT22;37475;43.358;1.248;2023-07-20T13:10:05;30.90;44.70
51383;DHT22;37475;43.358;1.248;2023-07-20T13:12:32;30.30;45.90
51383;DHT22;37475;43.358;1.248;2023-07-20T13:15:01;30.00;46.50
51383;DHT22;37475;43.358;1.248;2023-07-20T13:17:28;30.20;47.00
51383;DHT22;37475;43.358;1.248;2023-07-20T13:19:54;29.80;47.60
51383;DHT22;37475;43.358;1.248;2023-07-20T13:22:20;29.00;50.00
51383;DHT22;37475;43.358;1.248;2023-07-20T13:24:46;29.70;48.30
51383;DHT22;37475;43.358;1.248;2023-07-20T13:27:14;30.80;46.10
51383;DHT22;37475;43.358;1.248;2023-07-20T13:29:40;31.40;44.30
51383;DHT22;37475;43.358;1.248;2023-07-20T13:32:07;30.90;45.50
51383;DHT22;37475;43.358;1.248;2023-07-20T13:34:33;30.20;46.40
51383;DHT22;37475;43.358;1.248;2023-07-20T13:37:00;30.00;46.80
51383;DHT22;37475;43.358;1.248;2023-07-20T13:39:27;30.40;47.10
51383;DHT22;37475;43.358;1.248;2023-07-20T13:41:53;31.00;46.60
51383;DHT22;37475;43.358;1.248;2023-07-20T13:44:22;31.00;45.50
51383;DHT22;37475;43.358;1.248;2023-07-20T13:46:48;30.80;45.70
51383;DHT22;37475;43.358;1.248;2023-07-20T13:49:14;30.80;45.10
51383;DHT22;37475;43.358;1.248;2023-07-20T13:51:42;31.20;46.30
51383;DHT22;37475;43.358;1.248;2023-07-20T13:54:08;30.90;44.80
51383;DHT22;37475;43.358;1.248;2023-07-20T13:56:34;30.20;46.50
51383;DHT22;37475;43.358;1.248;2023-07-20T13:59:00;29.60;49.40
51383;DHT22;37475;43.358;1.248;2023-07-20T14:01:26;29.30;49.10
51383;DHT22;37475;43.358;1.248;2023-07-20T14:03:54;29.30;47.30
51383;DHT22;37475;43.358;1.248;2023-07-20T14:06:21;30.10;46.30
51383;DHT22;37475;43.358;1.248;2023-07-20T14:08:47;30.00;45.40
51383;DHT22;37475;43.358;1.248;2023-07-20T14:11:14;30.80;45.10
51383;DHT22;37475;43.358;1.248;2023-07-20T14:13:40;31.00;45.00
51383;DHT22;37475;43.358;1.248;2023-07-20T14:16:06;30.20;47.20
51383;DHT22;37475;43.358;1.248;2023-07-20T14:18:33;31.50;45.40
51383;DHT22;37475;43.358;1.248;2023-07-20T14:20:58;31.70;43.30
51383;DHT22;37475;43.358;1.248;2023-07-20T14:23:24;31.00;44.90
51383;DHT22;37475;43.358;1.248;2023-07-20T14:25:50;30.60;45.20
51383;DHT22;37475;43.358;1.248;2023-07-20T14:28:16;30.00;45.80
51383;DHT22;37475;43.358;1.248;2023-07-20T14:30:42;30.40;45.50
51383;DHT22;37475;43.358;1.248;2023-07-20T14:33:08;30.50;45.10
51383;DHT22;37475;43.358;1.248;2023-07-20T14:35:34;30.60;43.80
51383;DHT22;37475;43.358;1.248;2023-07-20T14:38:00;30.60;44.20
51383;DHT22;37475;43.358;1.248;2023-07-20T14:40:26;30.60;43.90
51383;DHT22;37475;43.358;1.248;2023-07-20T14:42:52;31.20;43.10
51383;DHT22;37475;43.358;1.248;2023-07-20T14:45:18;32.10;42.30
51383;DHT22;37475;43.358;1.248;2023-07-20T14:47:44;31.40;43.60
51383;DHT22;37475;43.358;1.248;2023-07-20T14:50:11;31.10;44.70
51383;DHT22;37475;43.358;1.248;2023-07-20T14:52:37;32.10;42.80
51383;DHT22;37475;43.358;1.248;2023-07-20T14:55:03;32.00;42.40
51383;DHT22;37475;43.358;1.248;2023-07-20T14:57:29;31.90;42.20
51383;DHT22;37475;43.358;1.248;2023-07-20T14:59:55;32.40;41.20
51383;DHT22;37475;43.358;1.248;2023-07-20T15:02:21;32.40;41.50
51383;DHT22;37475;43.358;1.248;2023-07-20T15:04:51;32.40;42.10
51383;DHT22;37475;43.358;1.248;2023-07-20T15:07:18;31.40;42.70
51383;DHT22;37475;43.358;1.248;2023-07-20T15:09:45;31.00;44.30
51383;DHT22;37475;43.358;1.248;2023-07-20T15:12:11;30.60;45.50
51383;DHT22;37475;43.358;1.248;2023-07-20T15:14:40;30.90;44.40
51383;DHT22;37475;43.358;1.248;2023-07-20T15:17:07;30.40;45.40
51383;DHT22;37475;43.358;1.248;2023-07-20T15:19:34;30.30;45.10
51383;DHT22;37475;43.358;1.248;2023-07-20T15:22:02;30.40;45.20
51383;DHT22;37475;43.358;1.248;2023-07-20T15:24:29;30.60;44.30
51383;DHT22;37475;43.358;1.248;2023-07-20T15:26:55;30.50;45.50
51383;DHT22;37475;43.358;1.248;2023-07-20T15:29:23;30.50;44.80
51383;DHT22;37475;43.358;1.248;2023-07-20T15:31:49;30.90;45.40
51383;DHT22;37475;43.358;1.248;2023-07-20T15:34:15;30.60;44.90
51383;DHT22;37475;43.358;1.248;2023-07-20T15:36:41;29.50;47.70
51383;DHT22;37475;43.358;1.248;2023-07-20T15:39:10;29.60;47.30
51383;DHT22;37475;43.358;1.248;2023-07-20T15:41:36;29.30;47.00
51383;DHT22;37475;43.358;1.248;2023-07-20T15:44:02;29.10;48.30
51383;DHT22;37475;43.358;1.248;2023-07-20T15:49:07;29.00;48.30
51383;DHT22;37475;43.358;1.248;2023-07-20T15:51:35;28.90;49.00
51383;DHT22;37475;43.358;1.248;2023-07-20T15:54:02;29.00;48.70
51383;DHT22;37475;43.358;1.248;2023-07-20T15:56:31;28.90;49.90
51383;DHT22;37475;43.358;1.248;2023-07-20T15:58:57;29.30;48.90